createdAt,value
2018-05-07T00:00:36.270Z,101133.08
2018-05-07T00:03:03.682Z,101143.89
2018-05-07T00:05:31.090Z,101135.25
2018-05-07T00:07:58.504Z,101127.27
2018-05-07T00:10:25.911Z,101134.29
2018-05-07T00:12:53.324Z,101133.80
2018-05-07T00:15:20.722Z,101145.81
2018-05-07T00:17:48.123Z,101136.06
2018-05-07T00:20:15.539Z,101137.97
2018-05-07T00:22:42.949Z,101142.55
2018-05-07T00:25:10.391Z,101135.83
2018-05-07T00:27:37.815Z,101140.27
2018-05-07T00:30:05.224Z,101141.69
2018-05-07T00:32:32.646Z,101134.16
2018-05-07T00:35:00.052Z,101144.37
2018-05-07T00:37:27.447Z,101141.80
2018-05-07T00:39:54.843Z,101141.20
2018-05-07T00:42:22.402Z,101141.13
2018-05-07T00:44:49.804Z,101142.92
2018-05-07T00:47:17.209Z,101141.27
2018-05-07T00:49:44.933Z,101142.58
2018-05-07T00:52:12.304Z,101146.80
2018-05-07T00:54:51.630Z,101144.73
2018-05-07T00:57:19.049Z,101151.97
2018-05-07T00:59:46.453Z,101152.23
2018-05-07T01:02:13.875Z,101150.88
2018-05-07T01:04:41.280Z,101156.47
2018-05-07T01:07:08.691Z,101145.83
2018-05-07T01:09:36.096Z,101143.95
2018-05-07T01:12:03.495Z,101148.05
2018-05-07T01:14:30.910Z,101151.31
2018-05-07T01:16:58.308Z,101142.77
2018-05-07T01:19:25.723Z,101142.23
2018-05-07T01:21:53.137Z,101143.65
2018-05-07T01:24:20.555Z,101142.58
2018-05-07T01:26:47.951Z,101144.41
2018-05-07T01:29:15.348Z,101150.86
2018-05-07T01:31:42.760Z,101147.19
2018-05-07T01:34:10.169Z,101145.47
2018-05-07T01:36:37.602Z,101148.00
2018-05-07T01:39:05.059Z,101142.86
2018-05-07T01:41:32.489Z,101137.42
2018-05-07T01:43:59.908Z,101143.23
2018-05-07T01:46:27.343Z,101136.99
2018-05-07T01:48:54.763Z,101144.94
2018-05-07T01:51:22.188Z,101142.17
2018-05-07T01:53:49.601Z,101147.67
2018-05-07T01:56:17.015Z,101148.01
2018-05-07T01:58:44.424Z,101143.38
2018-05-07T02:01:11.832Z,101136.68
2018-05-07T02:03:39.247Z,101138.44
2018-05-07T02:06:06.728Z,101135.42
2018-05-07T02:08:34.136Z,101141.50
2018-05-07T02:11:01.537Z,101151.16
2018-05-07T02:13:28.956Z,101153.95
2018-05-07T02:15:56.356Z,101153.45
2018-05-07T02:18:23.776Z,101156.63
2018-05-07T02:20:51.196Z,101152.95
2018-05-07T02:23:18.601Z,101151.81
2018-05-07T02:25:46.019Z,101151.30
2018-05-07T02:28:13.744Z,101151.55
2018-05-07T02:30:41.159Z,101149.06
2018-05-07T02:33:08.561Z,101145.04
2018-05-07T02:35:36.004Z,101142.08
2018-05-07T02:38:03.419Z,101139.16
2018-05-07T02:40:30.832Z,101140.50
2018-05-07T02:42:58.257Z,101135.50
2018-05-07T02:45:25.692Z,101134.03
2018-05-07T02:47:53.104Z,101130.78
2018-05-07T02:50:20.531Z,101131.89
2018-05-07T02:52:47.949Z,101133.92
2018-05-07T02:55:15.364Z,101136.57
2018-05-07T02:57:42.771Z,101128.56
2018-05-07T03:00:10.185Z,101131.49
2018-05-07T03:02:37.595Z,101130.67
2018-05-07T03:05:05.014Z,101127.85
2018-05-07T03:07:32.428Z,101129.91
2018-05-07T03:09:59.852Z,101132.34
2018-05-07T03:12:27.255Z,101136.92
2018-05-07T03:14:54.681Z,101142.80
2018-05-07T03:17:22.096Z,101140.75
2018-05-07T03:19:49.513Z,101139.23
2018-05-07T03:22:16.933Z,101129.16
2018-05-07T03:24:44.438Z,101129.97
2018-05-07T03:27:11.773Z,101127.70
2018-05-07T03:29:39.180Z,101123.77
2018-05-07T03:32:06.599Z,101124.46
2018-05-07T03:34:34.021Z,101117.36
2018-05-07T03:37:01.459Z,101117.25
2018-05-07T03:39:28.872Z,101113.81
2018-05-07T03:41:56.303Z,101118.70
2018-05-07T03:44:23.735Z,101114.03
2018-05-07T03:46:51.155Z,101116.75
2018-05-07T03:49:18.586Z,101110.98
2018-05-07T03:51:46.265Z,101116.84
2018-05-07T03:54:13.702Z,101110.75
2018-05-07T03:56:41.141Z,101112.70
2018-05-07T03:59:08.548Z,101107.01
2018-05-07T04:01:35.972Z,101103.31
2018-05-07T04:04:03.396Z,101106.89
2018-05-07T04:06:30.819Z,101096.92
2018-05-07T04:08:58.419Z,101108.34
2018-05-07T04:11:25.812Z,101094.56
2018-05-07T04:13:53.235Z,101096.72
2018-05-07T04:16:32.421Z,101095.09
2018-05-07T04:19:11.555Z,101094.84
2018-05-07T04:21:38.956Z,101094.61
2018-05-07T04:24:07.185Z,101090.69
2018-05-07T04:26:34.588Z,101098.58
2018-05-07T04:29:02.012Z,101099.34
2018-05-07T04:31:29.417Z,101097.61
2018-05-07T04:33:56.847Z,101096.59
2018-05-07T04:36:24.248Z,101099.52
2018-05-07T04:38:51.657Z,101089.23
2018-05-07T04:41:19.077Z,101089.34
2018-05-07T04:43:46.588Z,101080.43
2018-05-07T04:46:14.012Z,101077.58
2018-05-07T04:48:41.423Z,101073.69
2018-05-07T04:51:08.873Z,101078.77
2018-05-07T04:53:36.321Z,101076.00
2018-05-07T04:56:03.717Z,101075.29
2018-05-07T04:58:31.148Z,101075.63
2018-05-07T05:00:58.559Z,101072.59
2018-05-07T05:03:25.955Z,101065.81
2018-05-07T05:05:53.375Z,101063.96
2018-05-07T05:08:20.816Z,101074.28
2018-05-07T05:10:48.283Z,101072.45
2018-05-07T05:13:15.676Z,101064.52
2018-05-07T05:15:43.079Z,101069.73
2018-05-07T05:18:10.519Z,101065.17
2018-05-07T05:20:37.912Z,101067.73
2018-05-07T05:23:05.348Z,101068.28
2018-05-07T05:25:32.989Z,101069.70
2018-05-07T05:28:00.391Z,101067.17
2018-05-07T05:30:27.832Z,101067.06
2018-05-07T05:32:55.242Z,101071.13
2018-05-07T05:35:22.644Z,101068.22
2018-05-07T05:37:50.085Z,101064.56
2018-05-07T05:40:17.496Z,101065.75
2018-05-07T05:42:44.892Z,101060.24
2018-05-07T05:45:12.323Z,101060.39
2018-05-07T05:47:39.757Z,101060.17
2018-05-07T05:50:07.279Z,101068.24
2018-05-07T05:52:34.580Z,101059.80
2018-05-07T05:55:02.005Z,101064.53
2018-05-07T05:57:29.410Z,101066.64
2018-05-07T05:59:56.851Z,101060.83
2018-05-07T06:02:24.252Z,101064.07
2018-05-07T06:04:51.697Z,101062.12
2018-05-07T06:07:19.105Z,101057.25
2018-05-07T06:09:46.513Z,101062.19
2018-05-07T06:12:13.938Z,101054.98
2018-05-07T06:14:41.398Z,101052.01
2018-05-07T06:17:08.763Z,101055.80
2018-05-07T06:19:36.194Z,101056.09
2018-05-07T06:22:03.630Z,101052.78
2018-05-07T06:24:31.024Z,101049.75
2018-05-07T06:26:58.428Z,101053.20
2018-05-07T06:29:25.852Z,101053.39
2018-05-07T06:31:53.256Z,101055.64
2018-05-07T06:34:20.749Z,101050.63
2018-05-07T06:36:48.076Z,101053.41
2018-05-07T06:39:15.499Z,101052.98
2018-05-07T06:41:42.904Z,101049.11
2018-05-07T06:44:10.332Z,101050.06
2018-05-07T06:46:37.734Z,101046.72
2018-05-07T06:49:05.148Z,101047.53
2018-05-07T06:51:32.560Z,101043.11
2018-05-07T06:53:59.980Z,101048.09
2018-05-07T06:56:27.397Z,101043.70
2018-05-07T06:58:54.811Z,101044.33
2018-05-07T07:01:22.215Z,101047.83
2018-05-07T07:03:49.620Z,101042.70
2018-05-07T07:06:17.101Z,101040.36
2018-05-07T07:08:44.513Z,101041.47
2018-05-07T07:11:11.928Z,101041.06
2018-05-07T07:13:39.340Z,101037.06
2018-05-07T07:16:06.748Z,101037.83
2018-05-07T07:18:34.227Z,101034.45
2018-05-07T07:21:01.636Z,101029.09
2018-05-07T07:23:29.047Z,101033.52
2018-05-07T07:25:56.468Z,101034.05
2018-05-07T07:28:23.889Z,101036.41
2018-05-07T07:30:51.336Z,101036.45
2018-05-07T07:33:18.762Z,101038.66
2018-05-07T07:35:46.180Z,101031.61
2018-05-07T07:38:13.584Z,101034.64
2018-05-07T07:40:41.064Z,101039.85
2018-05-07T07:43:08.480Z,101037.14
2018-05-07T07:45:35.887Z,101038.27
2018-05-07T07:48:03.319Z,101037.39
2018-05-07T07:50:30.763Z,101037.28
2018-05-07T07:52:58.184Z,101034.29
2018-05-07T07:55:25.589Z,101037.26
2018-05-07T07:57:53.019Z,101035.73
2018-05-07T08:00:20.421Z,101033.89
2018-05-07T08:02:47.840Z,101033.75
2018-05-07T08:05:15.253Z,101031.07
2018-05-07T08:07:42.671Z,101029.02
2018-05-07T08:10:10.072Z,101027.63
2018-05-07T08:12:37.472Z,101032.88
2018-05-07T08:15:04.888Z,101032.13
2018-05-07T08:17:32.291Z,101027.44
2018-05-07T08:20:00.028Z,101025.31
2018-05-07T08:22:27.427Z,101015.48
2018-05-07T08:24:54.836Z,101022.16
2018-05-07T08:27:22.251Z,101020.67
2018-05-07T08:29:49.652Z,101023.90
2018-05-07T08:32:17.075Z,101015.37
2018-05-07T08:34:44.484Z,101011.05
2018-05-07T08:37:11.908Z,101010.42
2018-05-07T08:39:39.310Z,101014.87
2018-05-07T08:42:06.724Z,101007.48
2018-05-07T08:44:34.434Z,100990.28
2018-05-07T08:47:02.253Z,101007.70
2018-05-07T08:49:29.649Z,101003.55
2018-05-07T08:51:57.055Z,101009.92
2018-05-07T08:54:24.490Z,101007.01
2018-05-07T08:56:51.897Z,100999.36
2018-05-07T08:59:19.619Z,100995.64
2018-05-07T09:01:47.141Z,100985.41
2018-05-07T09:04:14.487Z,100989.23
2018-05-07T09:06:41.889Z,100986.20
2018-05-07T09:09:09.292Z,100981.50
2018-05-07T09:11:36.720Z,100987.70
2018-05-07T09:14:04.128Z,100983.05
2018-05-07T09:16:31.568Z,100971.28
2018-05-07T09:18:58.972Z,100980.55
2018-05-07T09:21:26.392Z,100972.22
2018-05-07T09:23:53.799Z,100973.59
2018-05-07T09:26:21.246Z,100963.88
2018-05-07T09:28:48.666Z,100963.90
2018-05-07T09:31:16.063Z,100956.48
2018-05-07T09:33:43.473Z,100963.80
2018-05-07T09:36:10.874Z,100949.66
2018-05-07T09:38:38.280Z,100951.77
2018-05-07T09:41:05.840Z,100949.79
2018-05-07T09:43:33.247Z,100938.09
2018-05-07T09:46:00.648Z,100937.08
2018-05-07T09:48:28.065Z,100935.47
2018-05-07T09:50:55.464Z,100939.63
2018-05-07T09:53:22.863Z,100935.13
2018-05-07T09:55:50.283Z,100937.75
2018-05-07T09:58:17.687Z,100939.02
2018-05-07T10:00:45.521Z,100933.58
2018-05-07T10:03:12.932Z,100930.81
2018-05-07T10:05:40.373Z,100928.89
2018-05-07T10:08:07.792Z,100927.30
2018-05-07T10:10:35.204Z,100927.38
2018-05-07T10:13:02.687Z,100926.18
2018-05-07T10:15:30.101Z,100925.92
2018-05-07T10:17:57.527Z,100922.23
2018-05-07T10:20:25.017Z,100914.09
2018-05-07T10:22:52.486Z,100913.52
2018-05-07T10:25:19.909Z,100910.20
2018-05-07T10:27:47.314Z,100919.70
2018-05-07T10:30:14.736Z,100914.34
2018-05-07T10:32:42.138Z,100905.25
2018-05-07T10:35:09.552Z,100896.91
2018-05-07T10:37:36.960Z,100898.45
2018-05-07T10:40:04.389Z,100907.06
2018-05-07T10:42:31.819Z,100901.24
2018-05-07T10:44:59.235Z,100902.99
2018-05-07T10:47:26.653Z,100898.56
2018-05-07T10:49:54.063Z,100894.60
2018-05-07T10:52:21.484Z,100890.32
2018-05-07T10:54:48.886Z,100891.42
2018-05-07T10:57:16.284Z,100886.34
2018-05-07T10:59:43.695Z,100888.99
2018-05-07T11:02:11.105Z,100883.69
2018-05-07T11:04:38.514Z,100884.05
2018-05-07T11:07:05.924Z,100887.27
2018-05-07T11:09:33.335Z,100881.73
2018-05-07T11:12:00.791Z,100883.64
2018-05-07T11:14:28.280Z,100886.85
2018-05-07T11:16:55.668Z,100883.37
2018-05-07T11:19:23.079Z,100882.16
2018-05-07T11:21:50.479Z,100874.37
2018-05-07T11:24:17.905Z,100871.94
2018-05-07T11:26:45.312Z,100859.10
2018-05-07T11:29:12.740Z,100857.23
2018-05-07T11:31:40.157Z,100864.32
2018-05-07T11:34:07.634Z,100860.78
2018-05-07T11:36:35.034Z,100857.09
2018-05-07T11:39:02.510Z,100856.43
2018-05-07T11:41:29.883Z,100858.62
2018-05-07T11:43:57.306Z,100846.47
2018-05-07T11:46:24.721Z,100849.50
2018-05-07T11:48:52.145Z,100849.00
2018-05-07T11:51:19.551Z,100841.52
2018-05-07T11:53:46.984Z,100840.33
2018-05-07T11:56:14.405Z,100844.22
2018-05-07T11:58:41.817Z,100837.95
2018-05-07T12:01:09.237Z,100841.10
2018-05-07T12:03:36.646Z,100843.52
2018-05-07T12:06:04.068Z,100838.61
2018-05-07T12:08:31.507Z,100834.70
2018-05-07T12:10:58.957Z,100826.72
2018-05-07T12:13:26.365Z,100845.18
2018-05-07T12:15:53.866Z,100827.66
2018-05-07T12:18:21.252Z,100829.14
2018-05-07T12:20:48.659Z,100831.70
2018-05-07T12:23:16.142Z,100823.48
2018-05-07T12:25:43.526Z,100836.02
2018-05-07T12:28:10.912Z,100823.64
2018-05-07T12:30:38.308Z,100841.02
2018-05-07T12:33:05.732Z,100829.67
2018-05-07T12:35:33.139Z,100822.81
2018-05-07T12:38:00.571Z,100810.75
2018-05-07T12:40:28.396Z,100810.86
2018-05-07T12:42:55.808Z,100817.84
2018-05-07T12:45:23.233Z,100807.91
2018-05-07T12:47:50.637Z,100809.27
2018-05-07T12:50:18.048Z,100808.92
2018-05-07T12:52:45.557Z,100799.09
2018-05-07T12:55:12.866Z,100800.20
2018-05-07T12:57:40.268Z,100790.88
2018-05-07T13:00:07.687Z,100787.13
2018-05-07T13:02:35.084Z,100794.66
2018-05-07T13:05:02.514Z,100786.37
2018-05-07T13:07:29.931Z,100789.13
2018-05-07T13:09:57.344Z,100778.38
2018-05-07T13:12:24.755Z,100773.41
2018-05-07T13:14:52.175Z,100769.66
2018-05-07T13:17:19.936Z,100766.84
2018-05-07T13:19:47.360Z,100764.83
2018-05-07T13:22:14.771Z,100759.13
2018-05-07T13:24:42.192Z,100754.00
2018-05-07T13:27:09.605Z,100748.66
2018-05-07T13:29:37.079Z,100741.23
2018-05-07T13:32:04.508Z,100741.36
2018-05-07T13:34:31.924Z,100741.95
2018-05-07T13:36:59.399Z,100739.92
2018-05-07T13:39:27.575Z,100736.45
2018-05-07T13:41:54.985Z,100725.87
2018-05-07T13:44:22.411Z,100727.83
2018-05-07T13:46:49.881Z,100718.23
2018-05-07T13:49:17.279Z,100721.48
2018-05-07T13:51:44.683Z,100715.52
2018-05-07T13:54:12.096Z,100719.78
2018-05-07T13:56:39.496Z,100723.04
2018-05-07T13:59:06.939Z,100718.32
2018-05-07T14:01:34.341Z,100719.58
2018-05-07T14:04:01.752Z,100710.62
2018-05-07T14:06:29.151Z,100713.17
2018-05-07T14:08:56.567Z,100706.08
2018-05-07T14:11:23.967Z,100705.28
2018-05-07T14:13:51.372Z,100705.62
2018-05-07T14:16:18.794Z,100707.89
2018-05-07T14:18:46.195Z,100708.81
2018-05-07T14:21:13.638Z,100694.91
2018-05-07T14:23:41.047Z,100682.17
2018-05-07T14:26:08.467Z,100675.23
2018-05-07T14:28:35.866Z,100680.28
2018-05-07T14:31:03.274Z,100686.81
2018-05-07T14:33:30.709Z,100691.91
2018-05-07T14:35:58.103Z,100684.30
2018-05-07T14:38:25.563Z,100674.71
2018-05-07T14:40:52.972Z,100676.30
2018-05-07T14:43:20.384Z,100678.13
2018-05-07T14:45:47.834Z,100672.95
2018-05-07T14:48:15.575Z,100669.08
2018-05-07T14:50:43.161Z,100669.30
2018-05-07T14:53:10.559Z,100666.84
2018-05-07T14:55:37.977Z,100658.99
2018-05-07T14:58:05.379Z,100653.13
2018-05-07T15:00:32.801Z,100654.24
2018-05-07T15:03:00.209Z,100661.03
2018-05-07T15:05:27.669Z,100665.16
2018-05-07T15:07:55.053Z,100663.81
2018-05-07T15:10:22.505Z,100664.33
2018-05-07T15:12:49.884Z,100663.48
2018-05-07T15:15:17.300Z,100661.88
2018-05-07T15:17:44.720Z,100649.34
2018-05-07T15:20:12.140Z,100653.45
2018-05-07T15:22:39.544Z,100651.15
2018-05-07T15:25:06.956Z,100649.16
2018-05-07T15:27:34.360Z,100651.08
2018-05-07T15:30:01.876Z,100644.88
2018-05-07T15:32:29.272Z,100648.22
2018-05-07T15:34:56.981Z,100645.46
2018-05-07T15:37:24.385Z,100647.20
2018-05-07T15:39:51.794Z,100651.57
2018-05-07T15:42:19.207Z,100647.13
2018-05-07T15:44:46.640Z,100631.41
2018-05-07T15:47:14.058Z,100642.19
2018-05-07T15:49:41.466Z,100630.67
2018-05-07T15:52:08.885Z,100631.39
2018-05-07T15:54:36.292Z,100628.47
2018-05-07T15:57:03.719Z,100625.42
2018-05-07T15:59:31.119Z,100624.73
2018-05-07T16:01:58.547Z,100623.73
2018-05-07T16:04:25.961Z,100619.14
2018-05-07T16:06:53.380Z,100615.52
2018-05-07T16:09:20.800Z,100614.47
2018-05-07T16:11:48.207Z,100619.86
2018-05-07T16:14:15.619Z,100618.45
2018-05-07T16:16:43.031Z,100614.86
2018-05-07T16:19:10.435Z,100606.49
2018-05-07T16:21:38.267Z,100600.86
2018-05-07T16:24:05.651Z,100612.31
2018-05-07T16:26:33.100Z,100607.73
2018-05-07T16:29:00.468Z,100601.47
2018-05-07T16:31:27.871Z,100603.37
2018-05-07T16:33:55.288Z,100597.67
2018-05-07T16:36:22.685Z,100605.88
2018-05-07T16:38:50.111Z,100589.78
2018-05-07T16:41:17.507Z,100603.28
2018-05-07T16:43:44.932Z,100607.85
2018-05-07T16:46:12.348Z,100604.81
2018-05-07T16:48:39.811Z,100593.91
2018-05-07T16:51:07.177Z,100606.36
2018-05-07T16:53:34.600Z,100598.05
2018-05-07T16:56:02.020Z,100601.37
2018-05-07T16:58:29.430Z,100598.34
2018-05-07T17:00:56.862Z,100594.56
2018-05-07T17:03:24.264Z,100597.63
2018-05-07T17:05:51.681Z,100594.11
2018-05-07T17:08:19.170Z,100593.98
2018-05-07T17:10:46.508Z,100598.71
2018-05-07T17:13:13.911Z,100590.80
2018-05-07T17:15:41.314Z,100593.92
2018-05-07T17:18:08.723Z,100594.33
2018-05-07T17:20:36.139Z,100601.98
2018-05-07T17:23:03.552Z,100598.21
2018-05-07T17:25:30.959Z,100588.33
2018-05-07T17:27:58.360Z,100591.80
2018-05-07T17:30:25.780Z,100592.68
2018-05-07T17:32:53.200Z,100594.95
2018-05-07T17:35:20.628Z,100586.77
2018-05-07T17:37:48.049Z,100581.88
2018-05-07T17:40:15.464Z,100586.73
2018-05-07T17:42:42.886Z,100591.80
2018-05-07T17:45:26.080Z,100588.95
2018-05-07T17:48:05.386Z,100581.41
2018-05-07T17:50:32.778Z,100588.99
2018-05-07T17:53:00.221Z,100593.52
2018-05-07T17:55:27.612Z,100587.88
2018-05-07T17:57:55.048Z,100583.27
2018-05-07T18:00:22.456Z,100581.98
2018-05-07T18:02:49.925Z,100581.98
2018-05-07T18:05:17.460Z,100583.50
2018-05-07T18:07:44.886Z,100586.09
2018-05-07T18:10:12.400Z,100577.53
2018-05-07T18:12:41.798Z,100576.47
2018-05-07T18:15:10.115Z,100583.73
2018-05-07T18:17:37.586Z,100583.00
2018-05-07T18:20:05.147Z,100579.91
2018-05-07T18:22:32.581Z,100593.00
2018-05-07T18:24:59.979Z,100582.84
2018-05-07T18:27:27.421Z,100573.77
2018-05-07T18:29:54.828Z,100577.52
2018-05-07T18:32:22.376Z,100579.84
2018-05-07T18:34:49.747Z,100577.16
2018-05-07T18:37:18.286Z,100574.02
2018-05-07T18:39:45.755Z,100574.59
2018-05-07T18:42:13.165Z,100580.69
2018-05-07T18:44:40.585Z,100579.85
2018-05-07T18:47:07.984Z,100586.19
2018-05-07T18:49:35.560Z,100579.98
2018-05-07T18:52:03.109Z,100583.91
2018-05-07T18:54:30.585Z,100581.79
2018-05-07T18:56:57.998Z,100578.95
2018-05-07T18:59:25.447Z,100584.87
2018-05-07T19:01:52.886Z,100584.97
2018-05-07T19:04:20.290Z,100582.11
2018-05-07T19:06:48.748Z,100586.59
2018-05-07T19:09:16.171Z,100589.73
2018-05-07T19:11:43.865Z,100583.27
2018-05-07T19:14:11.284Z,100583.95
2018-05-07T19:16:38.666Z,100588.69
2018-05-07T19:19:06.137Z,100587.78
2018-05-07T19:21:33.567Z,100591.88
2018-05-07T19:24:00.982Z,100590.63
2018-05-07T19:26:29.012Z,100589.11
2018-05-07T19:28:56.484Z,100587.59
2018-05-07T19:31:23.885Z,100589.87
2018-05-07T19:33:51.275Z,100589.77
2018-05-07T19:36:18.695Z,100591.23
2018-05-07T19:38:46.106Z,100594.11
2018-05-07T19:41:14.512Z,100593.75
2018-05-07T19:43:42.376Z,100594.66
2018-05-07T19:46:09.779Z,100594.52
2018-05-07T19:48:37.444Z,100593.16
2018-05-07T19:51:04.852Z,100594.82
2018-05-07T19:53:32.299Z,100590.84
2018-05-07T19:55:59.763Z,100596.52
2018-05-07T19:58:27.156Z,100596.21
2018-05-07T20:00:54.564Z,100596.47
2018-05-07T20:03:21.979Z,100599.33
2018-05-07T20:05:49.406Z,100603.16
2018-05-07T20:08:16.805Z,100600.61
2018-05-07T20:10:44.196Z,100600.66
2018-05-07T20:13:11.610Z,100599.92
2018-05-07T20:15:39.192Z,100594.59
2018-05-07T20:18:06.786Z,100604.05
2018-05-07T20:20:34.245Z,100603.70
2018-05-07T20:23:01.848Z,100605.53
2018-05-07T20:25:29.739Z,100604.41
2018-05-07T20:27:57.496Z,100602.27
2018-05-07T20:30:24.931Z,100596.73
2018-05-07T20:32:52.630Z,100600.97
2018-05-07T20:35:20.448Z,100602.19
2018-05-07T20:37:47.925Z,100600.05
2018-05-07T20:40:15.827Z,100594.67
2018-05-07T20:42:43.205Z,100595.88
2018-05-07T20:45:10.852Z,100593.09
2018-05-07T20:47:38.574Z,100594.92
2018-05-07T20:50:06.294Z,100593.11
2018-05-07T20:52:33.840Z,100597.34
2018-05-07T20:55:01.305Z,100600.16
2018-05-07T20:57:29.705Z,100593.77
2018-05-07T20:59:57.143Z,100596.00
2018-05-07T21:02:24.591Z,100596.20
2018-05-07T21:04:52.075Z,100595.44
2018-05-07T21:07:19.484Z,100595.25
2018-05-07T21:09:46.898Z,100596.48
2018-05-07T21:12:14.387Z,100593.52
2018-05-07T21:14:41.827Z,100596.34
2018-05-07T21:17:09.291Z,100593.72
2018-05-07T21:19:36.719Z,100590.95
2018-05-07T21:22:04.167Z,100587.58
2018-05-07T21:24:31.579Z,100583.22
2018-05-07T21:26:58.992Z,100584.01
2018-05-07T21:29:26.417Z,100582.64
2018-05-07T21:31:53.831Z,100585.43
2018-05-07T21:34:21.236Z,100579.66
2018-05-07T21:36:48.647Z,100578.84
2018-05-07T21:39:16.048Z,100575.86
2018-05-07T21:41:43.512Z,100573.48
2018-05-07T21:44:10.912Z,100575.89
2018-05-07T21:46:38.328Z,100578.68
2018-05-07T21:49:05.740Z,100576.87
2018-05-07T21:51:33.151Z,100569.65
2018-05-07T21:54:00.564Z,100578.03
2018-05-07T21:56:28.051Z,100570.25
2018-05-07T21:58:55.788Z,100570.62
2018-05-07T22:01:23.181Z,100562.08
2018-05-07T22:03:50.579Z,100570.80
2018-05-07T22:06:17.984Z,100564.04
2018-05-07T22:08:45.387Z,100566.81
2018-05-07T22:11:12.800Z,100570.18
2018-05-07T22:13:40.206Z,100567.99
2018-05-07T22:16:07.618Z,100570.18
2018-05-07T22:18:35.020Z,100563.98
2018-05-07T22:21:02.440Z,100553.61
2018-05-07T22:23:29.839Z,100553.58
2018-05-07T22:25:57.259Z,100554.72
2018-05-07T22:28:24.669Z,100550.33
2018-05-07T22:30:52.095Z,100550.66
2018-05-07T22:33:19.516Z,100553.98
2018-05-07T22:35:46.942Z,100547.02
2018-05-07T22:38:14.357Z,100544.34
2018-05-07T22:40:47.428Z,100546.73
2018-05-07T22:43:14.833Z,100543.30
2018-05-07T22:45:42.249Z,100544.67
2018-05-07T22:48:09.656Z,100546.44
2018-05-07T22:50:37.071Z,100549.37
2018-05-07T22:53:04.481Z,100556.12
2018-05-07T22:55:31.899Z,100554.27
2018-05-07T22:57:59.312Z,100550.40
2018-05-07T23:00:26.785Z,100554.31
2018-05-07T23:02:54.171Z,100545.50
2018-05-07T23:05:21.587Z,100547.23
2018-05-07T23:07:49.005Z,100547.77
2018-05-07T23:10:16.426Z,100551.72
2018-05-07T23:12:43.828Z,100554.06
2018-05-07T23:15:11.587Z,100544.47
2018-05-07T23:17:38.992Z,100554.31
2018-05-07T23:20:06.400Z,100551.08
2018-05-07T23:22:33.849Z,100544.48
2018-05-07T23:25:01.313Z,100546.19
2018-05-07T23:27:28.716Z,100544.12
2018-05-07T23:29:56.123Z,100534.98
2018-05-07T23:32:23.531Z,100532.16
2018-05-07T23:34:50.944Z,100532.30
2018-05-07T23:37:18.363Z,100529.88
2018-05-07T23:39:45.769Z,100540.12
2018-05-07T23:42:13.199Z,100534.30
2018-05-07T23:44:40.604Z,100536.08
2018-05-07T23:47:08.024Z,100526.72
2018-05-07T23:49:35.432Z,100529.75
2018-05-07T23:52:02.856Z,100534.98
2018-05-07T23:54:30.256Z,100530.00
2018-05-07T23:56:57.664Z,100529.91
2018-05-07T23:59:25.077Z,100527.94
